Stone Ridge, Virginia
Current Conditions -  °F | °C
As of 6:52 PM on Friday 28 Nov 2014 (Local Time) from KIAD Reporting Station
Clear Clear  
Wind Chill: 30°   Ceiling: Unl
Heat Index: 30°   Visibility: 10mi
Dew Point: 19°   Wind: 3mph
Humidity: 64%   Direction: 310°NW
Pressure: 30.29"   Gusts: NA
Location:  38.959°N, 77.5988°W
Report Text: KIAD 282352Z 31003KT 10SM CLR M01/M07 A3029 RMK AO2 SLP260 T10111072 10022 21028 53005
Loading
Personal Weather Stations






























Interactive Weather Map New forecast layout! Learn more

10-Day Weather Forecast

Advertisements
Track Severe Weather on mobile